sensor_id;sensor_type;location;lat;lon;timestamp;P1;durP1;ratioP1;P2;durP2;ratioP2
6751;SDS011;3413;47.680;9.166;2023-03-13T00:00:02;4.57;;;2.27;;
6751;SDS011;3413;47.680;9.166;2023-03-13T00:05:06;6.17;;;1.80;;
6751;SDS011;3413;47.680;9.166;2023-03-13T00:10:09;5.63;;;1.90;;
6751;SDS011;3413;47.680;9.166;2023-03-13T00:15:11;4.70;;;1.37;;
6751;SDS011;3413;47.680;9.166;2023-03-13T00:20:13;3.77;;;1.60;;
6751;SDS011;3413;47.680;9.166;2023-03-13T00:25:17;7.10;;;1.50;;
6751;SDS011;3413;47.680;9.166;2023-03-13T00:30:19;9.47;;;1.47;;
6751;SDS011;3413;47.680;9.166;2023-03-13T00:35:21;4.47;;;1.40;;
6751;SDS011;3413;47.680;9.166;2023-03-13T00:40:23;3.30;;;1.50;;
6751;SDS011;3413;47.680;9.166;2023-03-13T00:45:25;4.70;;;1.73;;
6751;SDS011;3413;47.680;9.166;2023-03-13T00:50:27;3.70;;;1.37;;
6751;SDS011;3413;47.680;9.166;2023-03-13T00:55:29;3.33;;;1.40;;
6751;SDS011;3413;47.680;9.166;2023-03-13T01:00:30;3.83;;;1.30;;
6751;SDS011;3413;47.680;9.166;2023-03-13T01:05:32;1.73;;;0.70;;
6751;SDS011;3413;47.680;9.166;2023-03-13T01:10:34;2.10;;;0.93;;
6751;SDS011;3413;47.680;9.166;2023-03-13T01:15:36;1.87;;;1.03;;
6751;SDS011;3413;47.680;9.166;2023-03-13T01:20:38;2.40;;;0.90;;
6751;SDS011;3413;47.680;9.166;2023-03-13T01:25:41;6.20;;;0.90;;
6751;SDS011;3413;47.680;9.166;2023-03-13T01:30:43;8.40;;;0.90;;
6751;SDS011;3413;47.680;9.166;2023-03-13T01:35:45;2.13;;;0.90;;
6751;SDS011;3413;47.680;9.166;2023-03-13T01:40:47;1.70;;;1.00;;
6751;SDS011;3413;47.680;9.166;2023-03-13T01:51:58;5.33;;;1.10;;
6751;SDS011;3413;47.680;9.166;2023-03-13T02:02:16;3.17;;;1.27;;
6751;SDS011;3413;47.680;9.166;2023-03-13T02:07:21;5.60;;;0.80;;
6751;SDS011;3413;47.680;9.166;2023-03-13T02:12:34;1.53;;;0.80;;
6751;SDS011;3413;47.680;9.166;2023-03-13T02:17:40;4.13;;;0.70;;
6751;SDS011;3413;47.680;9.166;2023-03-13T02:22:46;1.70;;;0.90;;
6751;SDS011;3413;47.680;9.166;2023-03-13T02:33:11;2.80;;;0.80;;
6751;SDS011;3413;47.680;9.166;2023-03-13T02:38:17;1.53;;;0.90;;
6751;SDS011;3413;47.680;9.166;2023-03-13T02:48:32;2.53;;;1.10;;
6751;SDS011;3413;47.680;9.166;2023-03-13T02:53:37;3.17;;;0.90;;
6751;SDS011;3413;47.680;9.166;2023-03-13T02:58:40;2.60;;;0.70;;
6751;SDS011;3413;47.680;9.166;2023-03-13T03:03:52;1.03;;;0.70;;
6751;SDS011;3413;47.680;9.166;2023-03-13T03:08:54;2.47;;;1.00;;
6751;SDS011;3413;47.680;9.166;2023-03-13T03:13:56;2.50;;;1.27;;
6751;SDS011;3413;47.680;9.166;2023-03-13T03:19:00;3.77;;;1.20;;
6751;SDS011;3413;47.680;9.166;2023-03-13T03:24:02;3.90;;;1.30;;
6751;SDS011;3413;47.680;9.166;2023-03-13T03:29:04;3.97;;;1.23;;
6751;SDS011;3413;47.680;9.166;2023-03-13T03:34:08;3.30;;;0.97;;
6751;SDS011;3413;47.680;9.166;2023-03-13T03:39:10;3.53;;;1.40;;
6751;SDS011;3413;47.680;9.166;2023-03-13T03:44:13;3.60;;;1.00;;
6751;SDS011;3413;47.680;9.166;2023-03-13T03:49:24;5.23;;;1.27;;
6751;SDS011;3413;47.680;9.166;2023-03-13T03:54:26;3.30;;;1.20;;
6751;SDS011;3413;47.680;9.166;2023-03-13T03:59:28;3.57;;;1.10;;
6751;SDS011;3413;47.680;9.166;2023-03-13T04:04:34;6.93;;;1.27;;
6751;SDS011;3413;47.680;9.166;2023-03-13T04:09:41;3.17;;;1.23;;
6751;SDS011;3413;47.680;9.166;2023-03-13T04:14:49;1.10;;;0.80;;
6751;SDS011;3413;47.680;9.166;2023-03-13T04:19:51;1.60;;;0.93;;
6751;SDS011;3413;47.680;9.166;2023-03-13T04:24:53;3.97;;;1.10;;
6751;SDS011;3413;47.680;9.166;2023-03-13T04:29:56;2.33;;;1.00;;
6751;SDS011;3413;47.680;9.166;2023-03-13T04:35:15;4.53;;;1.00;;
6751;SDS011;3413;47.680;9.166;2023-03-13T04:40:46;2.30;;;0.83;;
6751;SDS011;3413;47.680;9.166;2023-03-13T04:46:07;7.60;;;0.93;;
6751;SDS011;3413;47.680;9.166;2023-03-13T04:51:42;2.43;;;1.13;;
6751;SDS011;3413;47.680;9.166;2023-03-13T04:57:03;3.53;;;1.10;;
6751;SDS011;3413;47.680;9.166;2023-03-13T05:02:34;8.13;;;1.03;;
6751;SDS011;3413;47.680;9.166;2023-03-13T05:07:45;1.00;;;0.60;;
6751;SDS011;3413;47.680;9.166;2023-03-13T05:13:04;1.50;;;0.80;;
6751;SDS011;3413;47.680;9.166;2023-03-13T05:18:25;1.63;;;0.87;;
6751;SDS011;3413;47.680;9.166;2023-03-13T05:23:55;1.67;;;1.07;;
6751;SDS011;3413;47.680;9.166;2023-03-13T05:29:13;9.93;;;0.80;;
6751;SDS011;3413;47.680;9.166;2023-03-13T05:34:34;1.40;;;1.00;;
6751;SDS011;3413;47.680;9.166;2023-03-13T05:39:47;2.60;;;1.00;;
6751;SDS011;3413;47.680;9.166;2023-03-13T05:45:07;1.43;;;0.80;;
6751;SDS011;3413;47.680;9.166;2023-03-13T05:50:29;1.33;;;0.90;;
6751;SDS011;3413;47.680;9.166;2023-03-13T05:55:57;1.60;;;0.83;;
6751;SDS011;3413;47.680;9.166;2023-03-13T06:01:31;1.10;;;0.73;;
6751;SDS011;3413;47.680;9.166;2023-03-13T06:06:39;3.23;;;0.90;;
6751;SDS011;3413;47.680;9.166;2023-03-13T06:11:41;2.23;;;1.20;;
6751;SDS011;3413;47.680;9.166;2023-03-13T06:16:44;3.00;;;1.07;;
6751;SDS011;3413;47.680;9.166;2023-03-13T06:21:52;1.20;;;0.80;;
6751;SDS011;3413;47.680;9.166;2023-03-13T06:26:53;1.20;;;0.70;;
6751;SDS011;3413;47.680;9.166;2023-03-13T06:31:55;2.00;;;1.10;;
6751;SDS011;3413;47.680;9.166;2023-03-13T06:36:58;1.33;;;0.90;;
6751;SDS011;3413;47.680;9.166;2023-03-13T06:42:00;1.10;;;0.80;;
6751;SDS011;3413;47.680;9.166;2023-03-13T06:47:02;1.43;;;0.73;;
6751;SDS011;3413;47.680;9.166;2023-03-13T06:52:05;1.50;;;0.80;;
6751;SDS011;3413;47.680;9.166;2023-03-13T06:57:07;1.40;;;0.90;;
6751;SDS011;3413;47.680;9.166;2023-03-13T07:02:12;1.63;;;0.80;;
6751;SDS011;3413;47.680;9.166;2023-03-13T07:07:14;1.83;;;0.90;;
6751;SDS011;3413;47.680;9.166;2023-03-13T07:12:32;1.20;;;0.80;;
6751;SDS011;3413;47.680;9.166;2023-03-13T07:17:35;1.83;;;0.80;;
6751;SDS011;3413;47.680;9.166;2023-03-13T07:22:37;1.80;;;0.90;;
6751;SDS011;3413;47.680;9.166;2023-03-13T07:27:39;2.20;;;1.20;;
6751;SDS011;3413;47.680;9.166;2023-03-13T07:32:41;4.63;;;1.30;;
6751;SDS011;3413;47.680;9.166;2023-03-13T07:37:43;1.40;;;0.90;;
6751;SDS011;3413;47.680;9.166;2023-03-13T07:42:45;4.00;;;1.03;;
6751;SDS011;3413;47.680;9.166;2023-03-13T07:47:47;4.50;;;0.90;;
6751;SDS011;3413;47.680;9.166;2023-03-13T07:52:49;1.63;;;1.00;;
6751;SDS011;3413;47.680;9.166;2023-03-13T07:57:51;1.63;;;0.70;;
6751;SDS011;3413;47.680;9.166;2023-03-13T08:02:53;2.33;;;0.80;;
6751;SDS011;3413;47.680;9.166;2023-03-13T08:07:55;4.53;;;1.10;;
6751;SDS011;3413;47.680;9.166;2023-03-13T08:12:57;1.53;;;0.80;;
6751;SDS011;3413;47.680;9.166;2023-03-13T08:17:58;2.00;;;1.03;;
6751;SDS011;3413;47.680;9.166;2023-03-13T08:23:00;1.53;;;0.70;;
6751;SDS011;3413;47.680;9.166;2023-03-13T08:28:02;1.60;;;0.93;;
6751;SDS011;3413;47.680;9.166;2023-03-13T08:33:04;2.30;;;1.00;;
6751;SDS011;3413;47.680;9.166;2023-03-13T08:38:08;7.23;;;1.10;;
6751;SDS011;3413;47.680;9.166;2023-03-13T08:43:12;1.27;;;0.70;;
6751;SDS011;3413;47.680;9.166;2023-03-13T08:48:14;2.53;;;0.80;;
6751;SDS011;3413;47.680;9.166;2023-03-13T08:53:16;3.23;;;0.97;;
6751;SDS011;3413;47.680;9.166;2023-03-13T08:58:18;1.10;;;0.60;;
6751;SDS011;3413;47.680;9.166;2023-03-13T09:03:20;3.80;;;0.80;;
6751;SDS011;3413;47.680;9.166;2023-03-13T09:08:22;1.37;;;0.80;;
6751;SDS011;3413;47.680;9.166;2023-03-13T09:13:25;1.53;;;0.90;;
6751;SDS011;3413;47.680;9.166;2023-03-13T09:18:28;3.20;;;1.07;;
6751;SDS011;3413;47.680;9.166;2023-03-13T09:23:30;1.60;;;0.80;;
6751;SDS011;3413;47.680;9.166;2023-03-13T09:28:32;4.30;;;0.93;;
6751;SDS011;3413;47.680;9.166;2023-03-13T09:33:35;2.77;;;1.00;;
6751;SDS011;3413;47.680;9.166;2023-03-13T09:38:37;3.43;;;0.93;;
6751;SDS011;3413;47.680;9.166;2023-03-13T09:49:38;1.17;;;0.50;;
6751;SDS011;3413;47.680;9.166;2023-03-13T09:54:47;2.30;;;0.63;;
6751;SDS011;3413;47.680;9.166;2023-03-13T10:15:45;5.63;;;0.93;;
6751;SDS011;3413;47.680;9.166;2023-03-13T10:20:57;2.03;;;0.80;;
6751;SDS011;3413;47.680;9.166;2023-03-13T10:26:02;3.47;;;0.67;;
6751;SDS011;3413;47.680;9.166;2023-03-13T10:31:09;1.30;;;0.60;;
6751;SDS011;3413;47.680;9.166;2023-03-13T10:36:22;1.30;;;0.60;;
6751;SDS011;3413;47.680;9.166;2023-03-13T10:46:32;1.30;;;0.70;;
6751;SDS011;3413;47.680;9.166;2023-03-13T10:51:44;3.10;;;0.83;;
6751;SDS011;3413;47.680;9.166;2023-03-13T10:56:51;5.47;;;0.67;;
6751;SDS011;3413;47.680;9.166;2023-03-13T11:02:19;1.20;;;0.63;;
6751;SDS011;3413;47.680;9.166;2023-03-13T11:07:36;3.20;;;1.40;;
6751;SDS011;3413;47.680;9.166;2023-03-13T11:12:44;1.27;;;0.60;;
6751;SDS011;3413;47.680;9.166;2023-03-13T11:18:23;1.20;;;0.60;;
6751;SDS011;3413;47.680;9.166;2023-03-13T11:23:19;2.60;;;0.60;;
6751;SDS011;3413;47.680;9.166;2023-03-13T11:34:07;1.17;;;0.70;;
6751;SDS011;3413;47.680;9.166;2023-03-13T11:44:28;1.10;;;0.60;;
6751;SDS011;3413;47.680;9.166;2023-03-13T11:55:11;1.43;;;0.60;;
6751;SDS011;3413;47.680;9.166;2023-03-13T12:00:37;2.60;;;0.73;;
6751;SDS011;3413;47.680;9.166;2023-03-13T12:05:48;1.30;;;0.70;;
6751;SDS011;3413;47.680;9.166;2023-03-13T12:16:11;3.27;;;0.63;;
6751;SDS011;3413;47.680;9.166;2023-03-13T12:31:41;2.30;;;0.70;;
6751;SDS011;3413;47.680;9.166;2023-03-13T12:47:32;0.90;;;0.50;;
6751;SDS011;3413;47.680;9.166;2023-03-13T13:03:35;1.20;;;0.57;;
6751;SDS011;3413;47.680;9.166;2023-03-13T13:08:49;2.10;;;0.50;;
6751;SDS011;3413;47.680;9.166;2023-03-13T13:24:50;4.83;;;0.60;;
6751;SDS011;3413;47.680;9.166;2023-03-13T13:29:57;1.20;;;0.60;;
6751;SDS011;3413;47.680;9.166;2023-03-13T13:50:26;5.90;;;0.60;;
6751;SDS011;3413;47.680;9.166;2023-03-13T14:00:59;1.10;;;0.60;;
6751;SDS011;3413;47.680;9.166;2023-03-13T14:11:34;2.70;;;0.83;;
6751;SDS011;3413;47.680;9.166;2023-03-13T14:16:47;2.90;;;0.67;;
6751;SDS011;3413;47.680;9.166;2023-03-13T14:21:56;1.00;;;0.60;;
6751;SDS011;3413;47.680;9.166;2023-03-13T14:27:15;2.37;;;0.60;;
6751;SDS011;3413;47.680;9.166;2023-03-13T14:32:19;6.70;;;0.90;;
6751;SDS011;3413;47.680;9.166;2023-03-13T14:37:36;2.20;;;0.90;;
6751;SDS011;3413;47.680;9.166;2023-03-13T14:42:47;1.80;;;0.60;;
6751;SDS011;3413;47.680;9.166;2023-03-13T14:53:23;2.07;;;0.63;;
6751;SDS011;3413;47.680;9.166;2023-03-13T14:58:27;1.67;;;0.70;;
6751;SDS011;3413;47.680;9.166;2023-03-13T15:03:31;10.83;;;3.37;;
6751;SDS011;3413;47.680;9.166;2023-03-13T15:08:34;1.50;;;0.70;;
6751;SDS011;3413;47.680;9.166;2023-03-13T15:13:39;3.33;;;0.80;;
6751;SDS011;3413;47.680;9.166;2023-03-13T15:18:41;1.33;;;0.60;;
6751;SDS011;3413;47.680;9.166;2023-03-13T15:23:45;1.20;;;0.70;;
6751;SDS011;3413;47.680;9.166;2023-03-13T15:28:51;2.60;;;0.70;;
6751;SDS011;3413;47.680;9.166;2023-03-13T15:33:54;1.03;;;0.50;;
6751;SDS011;3413;47.680;9.166;2023-03-13T15:38:58;2.10;;;0.60;;
6751;SDS011;3413;47.680;9.166;2023-03-13T15:44:00;1.63;;;0.80;;
6751;SDS011;3413;47.680;9.166;2023-03-13T15:49:02;2.43;;;0.63;;
6751;SDS011;3413;47.680;9.166;2023-03-13T15:54:04;4.93;;;0.80;;
6751;SDS011;3413;47.680;9.166;2023-03-13T15:59:10;3.20;;;1.33;;
6751;SDS011;3413;47.680;9.166;2023-03-13T16:04:13;1.47;;;0.70;;
6751;SDS011;3413;47.680;9.166;2023-03-13T16:09:15;2.10;;;0.90;;
6751;SDS011;3413;47.680;9.166;2023-03-13T16:14:17;2.80;;;0.77;;
6751;SDS011;3413;47.680;9.166;2023-03-13T16:19:19;2.83;;;0.83;;
6751;SDS011;3413;47.680;9.166;2023-03-13T16:24:21;4.60;;;0.90;;
6751;SDS011;3413;47.680;9.166;2023-03-13T16:29:23;1.57;;;0.70;;
6751;SDS011;3413;47.680;9.166;2023-03-13T16:34:26;1.10;;;0.70;;
6751;SDS011;3413;47.680;9.166;2023-03-13T16:39:27;1.87;;;0.87;;
6751;SDS011;3413;47.680;9.166;2023-03-13T16:44:29;1.90;;;0.80;;
6751;SDS011;3413;47.680;9.166;2023-03-13T16:49:31;3.33;;;0.70;;
6751;SDS011;3413;47.680;9.166;2023-03-13T16:54:33;0.90;;;0.50;;
6751;SDS011;3413;47.680;9.166;2023-03-13T16:59:35;2.50;;;0.80;;
6751;SDS011;3413;47.680;9.166;2023-03-13T17:04:37;8.07;;;1.20;;
6751;SDS011;3413;47.680;9.166;2023-03-13T17:09:39;2.47;;;1.03;;
6751;SDS011;3413;47.680;9.166;2023-03-13T17:14:41;7.30;;;2.03;;
6751;SDS011;3413;47.680;9.166;2023-03-13T17:19:44;2.90;;;1.20;;
6751;SDS011;3413;47.680;9.166;2023-03-13T17:24:46;2.23;;;1.30;;
6751;SDS011;3413;47.680;9.166;2023-03-13T17:29:49;2.23;;;0.93;;
6751;SDS011;3413;47.680;9.166;2023-03-13T17:34:51;2.77;;;1.30;;
6751;SDS011;3413;47.680;9.166;2023-03-13T17:39:53;1.60;;;0.80;;
6751;SDS011;3413;47.680;9.166;2023-03-13T17:44:55;2.07;;;1.07;;
6751;SDS011;3413;47.680;9.166;2023-03-13T17:49:57;5.30;;;2.20;;
6751;SDS011;3413;47.680;9.166;2023-03-13T17:54:59;3.87;;;1.40;;
6751;SDS011;3413;47.680;9.166;2023-03-13T18:00:01;2.87;;;1.30;;
6751;SDS011;3413;47.680;9.166;2023-03-13T18:05:11;3.20;;;2.00;;
6751;SDS011;3413;47.680;9.166;2023-03-13T18:10:18;5.60;;;2.30;;
6751;SDS011;3413;47.680;9.166;2023-03-13T18:15:25;5.17;;;2.33;;
6751;SDS011;3413;47.680;9.166;2023-03-13T18:20:29;5.40;;;2.07;;
6751;SDS011;3413;47.680;9.166;2023-03-13T18:25:32;5.67;;;2.20;;
6751;SDS011;3413;47.680;9.166;2023-03-13T18:30:34;6.53;;;1.90;;
6751;SDS011;3413;47.680;9.166;2023-03-13T18:35:39;8.83;;;1.70;;
6751;SDS011;3413;47.680;9.166;2023-03-13T18:40:42;13.07;;;3.43;;
6751;SDS011;3413;47.680;9.166;2023-03-13T18:45:44;10.30;;;3.50;;
6751;SDS011;3413;47.680;9.166;2023-03-13T18:50:45;5.13;;;2.17;;
6751;SDS011;3413;47.680;9.166;2023-03-13T18:55:47;8.30;;;2.50;;
6751;SDS011;3413;47.680;9.166;2023-03-13T19:00:49;7.37;;;2.53;;
6751;SDS011;3413;47.680;9.166;2023-03-13T19:05:51;3.60;;;2.20;;
6751;SDS011;3413;47.680;9.166;2023-03-13T19:10:53;3.60;;;1.97;;
6751;SDS011;3413;47.680;9.166;2023-03-13T19:15:55;6.97;;;2.50;;
6751;SDS011;3413;47.680;9.166;2023-03-13T19:20:57;13.03;;;2.30;;
6751;SDS011;3413;47.680;9.166;2023-03-13T19:26:02;5.50;;;2.23;;
6751;SDS011;3413;47.680;9.166;2023-03-13T19:31:05;6.17;;;2.57;;
6751;SDS011;3413;47.680;9.166;2023-03-13T19:36:10;4.13;;;2.37;;
6751;SDS011;3413;47.680;9.166;2023-03-13T19:41:14;6.40;;;2.67;;
6751;SDS011;3413;47.680;9.166;2023-03-13T19:46:19;4.77;;;2.97;;
6751;SDS011;3413;47.680;9.166;2023-03-13T19:51:25;7.23;;;3.00;;
6751;SDS011;3413;47.680;9.166;2023-03-13T19:56:28;5.90;;;2.60;;
6751;SDS011;3413;47.680;9.166;2023-03-13T20:01:31;4.10;;;2.20;;
6751;SDS011;3413;47.680;9.166;2023-03-13T20:06:34;10.73;;;2.90;;
6751;SDS011;3413;47.680;9.166;2023-03-13T20:11:36;8.00;;;2.73;;
6751;SDS011;3413;47.680;9.166;2023-03-13T20:16:39;7.73;;;3.70;;
6751;SDS011;3413;47.680;9.166;2023-03-13T20:21:41;6.60;;;3.13;;
6751;SDS011;3413;47.680;9.166;2023-03-13T20:26:43;5.67;;;2.50;;
6751;SDS011;3413;47.680;9.166;2023-03-13T20:31:48;10.33;;;2.20;;
6751;SDS011;3413;47.680;9.166;2023-03-13T20:36:53;3.33;;;1.83;;
6751;SDS011;3413;47.680;9.166;2023-03-13T20:41:57;3.63;;;1.90;;
6751;SDS011;3413;47.680;9.166;2023-03-13T20:47:03;3.27;;;1.47;;
6751;SDS011;3413;47.680;9.166;2023-03-13T20:52:05;2.03;;;1.07;;
6751;SDS011;3413;47.680;9.166;2023-03-13T20:57:08;1.93;;;0.93;;
6751;SDS011;3413;47.680;9.166;2023-03-13T21:02:10;1.93;;;1.07;;
6751;SDS011;3413;47.680;9.166;2023-03-13T21:07:13;1.70;;;0.90;;
6751;SDS011;3413;47.680;9.166;2023-03-13T21:12:15;1.10;;;0.70;;
6751;SDS011;3413;47.680;9.166;2023-03-13T21:17:17;1.17;;;0.80;;
6751;SDS011;3413;47.680;9.166;2023-03-13T21:22:19;1.70;;;0.80;;
6751;SDS011;3413;47.680;9.166;2023-03-13T21:27:22;1.87;;;0.90;;
6751;SDS011;3413;47.680;9.166;2023-03-13T21:32:23;1.73;;;0.80;;
6751;SDS011;3413;47.680;9.166;2023-03-13T21:37:25;2.10;;;0.83;;
6751;SDS011;3413;47.680;9.166;2023-03-13T21:42:29;6.63;;;1.10;;
6751;SDS011;3413;47.680;9.166;2023-03-13T21:47:38;2.33;;;0.90;;
6751;SDS011;3413;47.680;9.166;2023-03-13T21:52:40;1.50;;;0.90;;
6751;SDS011;3413;47.680;9.166;2023-03-13T21:57:42;1.37;;;0.80;;
6751;SDS011;3413;47.680;9.166;2023-03-13T22:02:44;1.50;;;0.80;;
6751;SDS011;3413;47.680;9.166;2023-03-13T22:07:47;1.40;;;0.70;;
6751;SDS011;3413;47.680;9.166;2023-03-13T22:13:04;1.73;;;0.87;;
6751;SDS011;3413;47.680;9.166;2023-03-13T22:19:09;3.77;;;0.80;;
6751;SDS011;3413;47.680;9.166;2023-03-13T22:24:13;2.30;;;1.00;;
6751;SDS011;3413;47.680;9.166;2023-03-13T22:29:15;1.67;;;0.90;;
6751;SDS011;3413;47.680;9.166;2023-03-13T22:34:17;1.77;;;0.77;;
6751;SDS011;3413;47.680;9.166;2023-03-13T22:39:19;0.93;;;0.60;;
6751;SDS011;3413;47.680;9.166;2023-03-13T22:44:21;1.07;;;0.60;;
6751;SDS011;3413;47.680;9.166;2023-03-13T22:49:23;2.10;;;0.70;;
6751;SDS011;3413;47.680;9.166;2023-03-13T22:54:24;1.00;;;0.60;;
6751;SDS011;3413;47.680;9.166;2023-03-13T22:59:26;1.77;;;0.77;;
6751;SDS011;3413;47.680;9.166;2023-03-13T23:04:28;1.10;;;0.70;;
6751;SDS011;3413;47.680;9.166;2023-03-13T23:09:30;1.77;;;0.80;;
6751;SDS011;3413;47.680;9.166;2023-03-13T23:14:32;1.10;;;0.60;;
6751;SDS011;3413;47.680;9.166;2023-03-13T23:19:34;1.10;;;0.60;;
6751;SDS011;3413;47.680;9.166;2023-03-13T23:24:36;2.33;;;0.70;;
6751;SDS011;3413;47.680;9.166;2023-03-13T23:29:38;1.67;;;0.67;;
6751;SDS011;3413;47.680;9.166;2023-03-13T23:34:40;1.73;;;0.80;;
6751;SDS011;3413;47.680;9.166;2023-03-13T23:39:42;1.13;;;0.60;;
6751;SDS011;3413;47.680;9.166;2023-03-13T23:44:44;0.80;;;0.60;;
6751;SDS011;3413;47.680;9.166;2023-03-13T23:49:46;2.83;;;0.70;;
6751;SDS011;3413;47.680;9.166;2023-03-13T23:54:50;1.40;;;0.70;;
6751;SDS011;3413;47.680;9.166;2023-03-13T23:59:53;2.23;;;0.77;;
